Portada
METAR-TAF:

METAR-TAF

Aeroports :

Sevilla, Espanya

latitud: 37-25N, longitud: 005-54W, altitud: 34 m

Observació

L'informe es va fer fa 35 minuts, a les 01:30 UTC
Vent 5 kt del Nord-Oest, variant entre Oest i Nord/Nord-Oest
Temperatura 20°C
Humitat 78%
Pressió 1014 hPa
Visibilitat 10 km o més
Cel cobert a una alçada de 2200 ft

METAR: LEZL 160130Z AUTO 31005KT 280V340 9999 OVC022 20/16 Q1014

Hora: 04:05 (02:05 UTC)

Pronòstic

L'informe es va fer fa 6 hores i 5 minuts, a les 20:00 UTC
Pronòstic vàlid del 15 a les 21 UTC al 16 a les 21 UTC
Vent 9 kt del Sud-Oest
Visibilitat 10 km o més
sense núvols per sota de 1500 mi sense presència de cumulonimbus.
Temporalment
l' 16 a les 00 UTC al 16 a les 09 UTC
Cel ennuvolat a una alçada de 1000 ft

TAF: LEZL 152000Z 1521/1621 22009KT CAVOK TX27/1615Z TN18/1605Z TEMPO 1600/1609 BKN010

Observacions i pronòstics meteorològics de més de 4000 aeroports (METAR i TAF).

Les estacions disponibles són els punts grocs i vermells al mapa.

Posi el ratolí al punt desitjat per veure el nom de l'estació.

Feu clic per veure les observacions i els pronòstics meteorològics.

Per canviar el mapa: feu clic els botons verds amb una creu de color negre per apropar; al botó verd amb un guió per allunyar la imatge; o en les fletxes verdes per a mapes adjacents.


METAR-TAF: